Chamboeuf (21) - E

Date : 23/08/2013

Place Nom Licence Catégorie Club Temps CN à J-60 Points Différence Nouveau CN
1 VILLAR Aurélie 18133 D35 6008PI 0:35:36 4719 5020 +301 4900
2 GREBEL Laurence-Marie 6064 D40 7305RA 0:35:52 5093 4983 -110 5012
3 RIVOLLIER Isaline 22451 D18 4201RA 0:36:35 4200 4885 +685 4407
4 VALCHERA Claire 8648 D45 3810RA 0:37:29 4200 4768 +568 4713
5 STARKE Paula 26505 D18 6913RA 0:37:34 4562 4757 +195 4960
6 ALAFORT Lucie 22475 D18 5116CA 0:37:36 4260 4753 +493 4485
7 GROSJEAN Cathy 23628 D40 6913RA 0:41:34 3640 4299 +659 4726
8 VILLAR Isabelle 14216 D45 6701AL 0:42:05 4400 4247 -153 4426
9 LAVILLE Mireille 18411 D45 1307PR 0:42:51 3760 4171 +411 3819
10 DEMESSANCE Annaik 25595 D18 6008PI 0:43:09 3824 4142 +318 3800
11 DAVID Céline 26993 D45 9006FC 0:44:18 4454 4034 -420 4454
12 VIOLLOT Ariane 16532 D40 2109BO 0:44:39 0 4002 3718
13 GUENIN Nathalie 16950 D40 5116CA 0:45:16 4103 3948 -155 4109
14 POURRE Valerie 738 D45 2508FC 0:45:56 4268 3891 -377 4268
15 DELENNE A-Francoise 11495 D45 1307PR 0:46:12 3837 3868 +31 3834
16 PETINON Christine 18601 D40 2301LI 0:46:17 4371 3861 -510 4340
17 BELDJILALI Stephanie 14568 D40 9801OM 0:46:26 3849 3734
18 CHAILLAN Caroline 20381 D45 0404PR 0:46:45 4143 3823 -320 4127
19 ELTZER Marie 26848 D18 6804AL 0:46:52 2920 3813 +893 3766
20 PASSELERGUE Marianne 19215 D40 7808IF 0:48:17 4025 3701 -324 3984
21 BACHELET Valérie 9424 D45 5907NO 0:48:18 3863 3700 -163 3749
22 CREUSAT Fanny 25989 D40 8809LO 0:48:25 3914 3691 -223 3907
23 MAES Karine 5989 D45 5604BR 0:49:07 0 3638 3849
24 LE CAM Miti 27711 D18 3502BR 0:49:09 2861 3636 +775 4109
25 BERRARD Marianne 18130 D45 2607RA 0:49:27 3724 3614 -110 3784
26 DOUSSET Corinne 20729 D45 4709AQ 0:49:30 3764 3610 -154 3759
27 VIDEIRA Christelle 24886 D40 3914FC 0:49:33 3035 3607 +572 3540
28 DUDOIGNON Jocelyne 17952 D45 2604RA 0:50:08 3931 3565 -366 3715
29 HERVE-JOUSSE Odile 13784 D45 9109IF 0:50:20 3403 3550 +147 3482
30 ROCHE Sandrine 10684 D40 6911RA 0:50:21 3764 3549 -215 3793
31 BESTEL Florence 17309 D40 9105IF 0:50:23 4023 3547 -476 4079
32 LAVAL Corine 22371 D40 8106MP 0:50:39 3837 3528 -309 3756
33 TREMOULET Carole 13824 D40 4601MP 0:50:56 3975 3509 -466 3874
34 COUTANCE Marion 26100 D18 1403NM 0:51:48 2484 3450 +966 3669
35 BLANC JOUVAN Florence 12007 D45 3810RA 0:53:31 3066 3339 +273 3488
36 AMROUCHE Sandrine 22654 D40 0615AZ 0:54:10 3110 3299 +189 3274
37 CRETE Angélique 18827 D40 6008PI 0:54:50 4389 3259 -1130 4310
38 BEAUVIR Laurence 8536 D40 3502BR 0:55:13 2842 3236 +394 3297
39 CLERC Caroline 10493 D40 7305RA 0:56:10 4028 3182 -846 4028
40 CALANDRY Lucia 9352 D45 7404RA 0:56:12 3008 3180 +172 2920
41 XIMENEZ Nadege 21359 D45 3801RA 0:57:11 2680 3125 +445 2339
42 CONIEL Anne 14884 D40 5604BR 0:57:41 3522 3098 -424 3575
43 CAVELIUS Sandrine 6495 D45 6906RA 0:58:59 2260 3030 +770 3109
44 SAMSON Caroline 23657 D45 8607PC 0:59:38 0 2997 3024
45 CHAILLARD Marketa 1928 D45 7305RA 1:00:22 3692 2960 -732 3433
46 LE VERGE Helene 15367 D40 2904BR 1:01:17 2901 2916 +15 3564
47 GONET Janick 21046 D40 2607RA 1:01:35 3994 2902 -1092 4106
48 PERDRIZET Anne 2661 D40 2101BO 1:01:42 3085 2896 -189 3338
49 GLAUDIN Clémentine 25899 D18 1403NM 1:02:01 0 2882 2629
50 VARRON Isabelle 14003 D45 7717IF 1:02:06 2762 2878 +116 3082
51 VALETTE Isabelle 2270 D40 6913RA 1:02:16 2876 2870 -6 2987
52 CHICHERY Séverine 26114 D35 8106MP 1:02:34 1538 2856 +1318 2475
53 LOTERIE Murielle 7044 D45 5907NO 1:02:38 3759 2853 -906 3649
54 CHABANCE Anne 20752 D45 4201RA 1:03:07 3233 2831 -402 3444
55 BONNEFON Christelle 25976 D45 3318AQ 1:04:14 3231 2782 -449 3329
56 BEGUINOT Claire 13961 D18 5702LO 1:04:25 3359 2774 -585 3744
57 TEGNY Laurine 23659 D18 6205NO 1:04:32 2938 2769 -169 2938
58 MARCUZZI Cécile 28161 D20 6008PI 1:06:58 2669 2372
59 GENNARO Beatrice 20862 D40 3811RA 1:08:10 3093 2622 -471 3307
60 GUELENNOC Christine 17592 D45 2906BR 1:09:26 2707 2574 -133 2688
61 TAUZIN Laurence 18370 D40 8607PC 1:10:28 2554 2536 -18 2453
62 CHESNEL Mélanie 27861 D18 1403NM 1:10:59 0 2518 2345
63 RAVENEL Veronique 10902 D45 6804AL 1:12:29 3330 2466 -864 3204
64 ANDRE Isabelle 25211 D40 4010AQ 1:12:43 3912 2458 -1454 3849
65 CHAUVINEAU Christine 15228 D45 7807IF 1:12:43 2831 2458 -373 2863
66 MEYER Catherine 20483 D45 6806AL 1:12:57 3015 2450 -565 3015
67 LOGE Sophie 12767 D45 5703LO 1:13:12 2831 2441 -390 2973
68 COLIN Marie-Noël 22020 D45 1311PR 1:13:27 2659 2433 -226 2908
69 DEPERSIN Isabelle 17899 D40 5907NO 1:15:17 2555 2374 -181 2645
70 REYDANT Juliette 19882 D18 2704NM 1:15:19 1978 2373 +395 2507
71 LOUVAT Veronique 8511 D40 0615AZ 1:22:43 0 2160 2041
72 CHAMPIGNY Laurence 25032 D45 8311AZ 1:23:08 2270 2150 -120 2291
73 LEVREUX Nathalie 14946 D45 7807IF 1:23:49 3751 2132 -1619 3820
74 WU Christine 22945 D40 7808IF 1:25:56 2728 2080 -648 2850
75 MONESTES Nathalie 24036 D45 4709AQ 1:31:53 2943 1945 -998 2943
76 BROUILLET Frédérique 19875 D45 1705PC 1:34:10 2824 1898 -926 2821
77 BOULESTREAU Francoise 11308 D45 2904BR 1:35:15 2479 1876 -603 2479
78 ROBBE Solène 24338 D45 9105IF 1:39:52 2674 1789 -885 2674
79 JOLY Michèle 25643 D45 2508FC 1:42:43 1084 1740 +656 1156
INDEAUX Catherine 10394 D40 6913RA pm 2676 0 2721
MOREAU Elisabeth 23799 D40 7808IF pm 3229 0 3364
ANGLADE Françoise 22255 D45 5604BR pm 3454 0 3464
GIRARD Florence 22478 D45 2508FC pm 2326 0 2326
nc ROUBOT Nathalie 25183 D40 2109BO 1:16:33